createdAt,value
2019-03-09T00:01:55.411Z,77.21
2019-03-09T00:04:25.046Z,77.17
2019-03-09T00:06:54.984Z,77.21
2019-03-09T00:09:43.518Z,77.45
2019-03-09T00:15:06.992Z,77.08
2019-03-09T00:17:37.402Z,77.08
2019-03-09T00:20:07.039Z,76.87
2019-03-09T00:22:36.459Z,76.73
2019-03-09T00:25:25.130Z,76.65
2019-03-09T00:31:10.493Z,76.59
2019-03-09T00:33:40.114Z,76.59
2019-03-09T00:36:09.728Z,76.03
2019-03-09T00:38:42.254Z,76.24
2019-03-09T00:41:11.716Z,76.24
2019-03-09T00:43:41.178Z,75.93
2019-03-09T00:46:29.747Z,75.54
2019-03-09T00:48:59.172Z,75.65
2019-03-09T00:51:28.553Z,75.65
2019-03-09T00:53:59.717Z,75.89
2019-03-09T00:56:29.193Z,75.89
2019-03-09T00:59:01.285Z,75.96
2019-03-09T01:01:30.773Z,76.01
2019-03-09T01:04:00.306Z,76.04
2019-03-09T01:06:30.032Z,76.12
2019-03-09T01:08:59.548Z,76.03
2019-03-09T01:11:48.658Z,76.08
2019-03-09T01:14:37.280Z,76.30
2019-03-09T01:17:18.357Z,76.30
2019-03-09T01:19:48.276Z,76.26
2019-03-09T01:25:26.154Z,75.98
2019-03-09T01:27:55.988Z,76.27
2019-03-09T01:30:25.877Z,76.24
2019-03-09T01:32:57.704Z,76.16
2019-03-09T01:35:46.370Z,75.46
2019-03-09T01:38:27.150Z,75.46
2019-03-09T01:40:59.740Z,75.38
2019-03-09T01:46:04.341Z,75.68
2019-03-09T01:48:45.234Z,75.68
2019-03-09T01:54:46.146Z,75.55
2019-03-09T02:00:02.127Z,75.68
2019-03-09T02:02:53.068Z,75.60
2019-03-09T02:05:34.061Z,75.60
2019-03-09T02:08:03.530Z,75.73
2019-03-09T02:10:33.071Z,75.85
2019-03-09T02:13:25.110Z,75.95
2019-03-09T02:15:54.796Z,76.18
2019-03-09T02:18:24.952Z,76.18
2019-03-09T02:21:13.415Z,76.10
2019-03-09T02:23:42.903Z,76.12
2019-03-09T02:26:15.117Z,76.10
2019-03-09T02:28:44.589Z,76.14
2019-03-09T02:31:14.021Z,76.31
2019-03-09T02:33:43.448Z,76.35
2019-03-09T02:36:32.611Z,76.53
2019-03-09T02:42:28.431Z,77.27
2019-03-09T02:44:57.941Z,77.27
2019-03-09T02:47:27.492Z,77.33
2019-03-09T02:49:58.965Z,77.55
2019-03-09T02:52:28.398Z,77.87
2019-03-09T02:55:16.827Z,78.58
2019-03-09T02:57:49.865Z,78.58
2019-03-09T03:00:40.087Z,78.23
2019-03-09T03:03:09.430Z,78.66
2019-03-09T03:05:39.241Z,79.14
2019-03-09T03:10:43.678Z,79.48
2019-03-09T03:13:13.168Z,79.48
2019-03-09T03:15:42.615Z,79.33
2019-03-09T03:21:00.397Z,79.53
2019-03-09T03:23:48.864Z,79.57
2019-03-09T03:26:18.446Z,79.57
2019-03-09T03:28:47.839Z,79.32
2019-03-09T03:31:17.270Z,78.60
2019-03-09T03:33:46.815Z,78.60
2019-03-09T03:36:16.218Z,78.62
2019-03-09T03:38:45.613Z,78.44
2019-03-09T03:41:15.381Z,78.42
2019-03-09T03:43:44.911Z,78.38
2019-03-09T03:46:22.510Z,78.17
2019-03-09T03:48:52.119Z,78.22
2019-03-09T03:51:21.828Z,78.32
2019-03-09T03:56:40.417Z,78.53
2019-03-09T03:59:09.934Z,78.74
2019-03-09T04:01:39.373Z,78.94
2019-03-09T04:04:27.969Z,78.93
2019-03-09T04:07:09.678Z,78.89
2019-03-09T04:09:39.381Z,78.76
2019-03-09T04:12:08.885Z,78.73
2019-03-09T04:14:38.371Z,78.71
2019-03-09T04:17:28.018Z,78.69
2019-03-09T04:19:57.500Z,78.61
2019-03-09T04:22:26.977Z,78.73
2019-03-09T04:24:56.733Z,79.15
2019-03-09T04:27:26.244Z,79.96
2019-03-09T04:32:45.231Z,81.75
2019-03-09T04:35:14.771Z,82.26
2019-03-09T04:37:44.154Z,82.57
2019-03-09T04:40:15.479Z,82.63
2019-03-09T04:42:44.873Z,82.67
2019-03-09T04:45:14.699Z,82.86
2019-03-09T04:47:44.121Z,82.91
2019-03-09T04:50:13.562Z,83.21
2019-03-09T04:52:42.945Z,82.99
2019-03-09T04:55:12.779Z,83.07
2019-03-09T04:57:42.156Z,83.25
2019-03-09T05:00:32.110Z,83.31
2019-03-09T05:03:01.504Z,83.29
2019-03-09T05:05:31.007Z,83.30
2019-03-09T05:08:12.585Z,83.50
2019-03-09T05:14:08.012Z,83.62
2019-03-09T05:16:37.843Z,83.62
2019-03-09T05:19:07.290Z,83.58
2019-03-09T05:21:37.553Z,83.74
2019-03-09T05:24:07.009Z,83.62
2019-03-09T05:26:36.531Z,83.75
2019-03-09T05:29:25.137Z,83.73
2019-03-09T05:34:54.195Z,83.43
2019-03-09T05:37:44.223Z,83.38
2019-03-09T05:40:13.724Z,83.48
2019-03-09T05:42:43.297Z,83.65
2019-03-09T05:45:12.692Z,83.88
2019-03-09T05:47:42.150Z,84.03
2019-03-09T05:50:11.691Z,84.03
2019-03-09T05:52:41.721Z,84.01
2019-03-09T05:55:30.487Z,84.04
2019-03-09T05:58:00.100Z,84.07
2019-03-09T06:00:29.594Z,84.06
2019-03-09T06:02:59.361Z,83.98
2019-03-09T06:06:06.747Z,83.89
2019-03-09T06:08:36.213Z,83.77
2019-03-09T06:11:05.601Z,83.86
2019-03-09T06:13:35.147Z,83.78
2019-03-09T06:16:04.551Z,83.81
2019-03-09T06:19:20.752Z,83.89
2019-03-09T06:21:50.424Z,83.93
2019-03-09T06:24:19.806Z,83.91
2019-03-09T06:26:49.260Z,83.93
2019-03-09T06:29:37.563Z,83.82
2019-03-09T06:32:18.904Z,83.84
2019-03-09T06:37:26.762Z,83.47
2019-03-09T06:39:57.335Z,83.23
2019-03-09T06:43:04.803Z,82.99
2019-03-09T06:45:34.237Z,82.55
2019-03-09T06:48:03.665Z,82.19
2019-03-09T06:50:33.113Z,81.65
2019-03-09T06:53:21.590Z,81.10
2019-03-09T06:55:51.066Z,81.10
2019-03-09T06:58:20.441Z,80.75
2019-03-09T07:00:49.855Z,80.39
2019-03-09T07:03:19.230Z,80.18
2019-03-09T07:06:07.849Z,79.41
2019-03-09T07:08:39.378Z,79.41
2019-03-09T07:13:57.035Z,78.70
2019-03-09T07:16:45.431Z,78.22
2019-03-09T07:19:26.198Z,77.91
2019-03-09T07:24:36.834Z,77.28
2019-03-09T07:27:06.237Z,76.98
2019-03-09T07:29:35.642Z,76.38
2019-03-09T07:32:05.127Z,76.19
2019-03-09T07:34:34.554Z,75.81
2019-03-09T07:37:03.940Z,75.72
2019-03-09T07:39:33.393Z,75.20
2019-03-09T07:42:02.806Z,75.26
2019-03-09T07:44:34.211Z,75.24
2019-03-09T07:47:03.373Z,75.21
2019-03-09T07:49:32.822Z,74.80
2019-03-09T07:52:02.244Z,74.40
2019-03-09T07:54:31.755Z,74.13
2019-03-09T07:59:49.828Z,74.26
2019-03-09T08:02:19.214Z,74.09
2019-03-09T08:04:48.720Z,74.16
2019-03-09T08:07:18.386Z,73.92
2019-03-09T08:09:47.758Z,73.74
2019-03-09T08:12:17.147Z,73.77
2019-03-09T08:14:46.535Z,73.47
2019-03-09T08:17:15.939Z,73.25
2019-03-09T08:19:45.367Z,73.17
2019-03-09T08:22:26.967Z,72.90
2019-03-09T08:27:50.720Z,72.54
2019-03-09T08:30:24.176Z,72.48
2019-03-09T08:32:53.832Z,71.95
2019-03-09T08:35:23.366Z,71.58
2019-03-09T08:38:12.113Z,71.63
2019-03-09T08:40:42.795Z,70.79
2019-03-09T08:45:53.699Z,70.13
2019-03-09T08:48:23.247Z,70.08
2019-03-09T08:56:40.050Z,69.74
2019-03-09T08:59:09.753Z,69.35
2019-03-09T09:01:58.015Z,68.36
2019-03-09T09:04:27.610Z,68.06
2019-03-09T09:06:57.179Z,68.40
2019-03-09T09:09:26.798Z,68.17
2019-03-09T09:12:02.606Z,68.26
2019-03-09T09:14:32.042Z,68.31
2019-03-09T09:17:01.447Z,68.57
2019-03-09T09:19:30.897Z,68.19
2019-03-09T09:22:00.269Z,67.90
2019-03-09T09:24:41.283Z,66.19
2019-03-09T09:30:18.470Z,65.41
2019-03-09T09:32:47.969Z,64.18
2019-03-09T09:35:57.685Z,64.16
2019-03-09T09:38:27.275Z,64.32
2019-03-09T09:40:56.926Z,63.72
2019-03-09T09:43:26.380Z,63.22
2019-03-09T09:48:49.694Z,63.32
2019-03-09T09:51:19.065Z,63.28
2019-03-09T09:53:48.431Z,62.18
2019-03-09T09:56:17.970Z,62.24
2019-03-09T09:58:47.426Z,61.45
2019-03-09T10:01:16.793Z,61.30
2019-03-09T10:03:46.211Z,60.89
2019-03-09T10:06:18.062Z,61.29
2019-03-09T10:08:47.500Z,60.48
2019-03-09T10:11:16.978Z,60.46
2019-03-09T10:14:01.396Z,60.01
2019-03-09T10:19:05.770Z,60.02
2019-03-09T10:21:35.228Z,59.51
2019-03-09T10:24:04.627Z,58.67
2019-03-09T10:26:45.557Z,58.01
2019-03-09T10:32:09.000Z,59.00
2019-03-09T10:34:38.415Z,59.38
2019-03-09T10:37:08.034Z,60.50
2019-03-09T10:39:39.281Z,60.59
2019-03-09T10:45:03.776Z,60.82
2019-03-09T10:53:20.389Z,60.88
2019-03-09T10:56:01.836Z,61.57
2019-03-09T10:58:31.236Z,61.93
2019-03-09T11:01:00.673Z,62.18
2019-03-09T11:03:30.250Z,60.53
2019-03-09T11:05:59.675Z,60.77
2019-03-09T11:08:34.167Z,60.17
2019-03-09T11:11:42.918Z,61.13
2019-03-09T11:14:12.395Z,60.66
2019-03-09T11:19:30.339Z,60.62
2019-03-09T11:21:59.746Z,60.14
2019-03-09T11:24:29.382Z,61.33
2019-03-09T11:29:33.946Z,61.41
2019-03-09T11:32:03.454Z,60.82
2019-03-09T11:34:32.938Z,61.27
2019-03-09T11:37:02.302Z,61.62
2019-03-09T11:39:31.751Z,61.80
2019-03-09T11:42:01.150Z,61.55
2019-03-09T11:44:30.611Z,62.37
2019-03-09T11:47:00.444Z,62.28
2019-03-09T11:49:29.822Z,62.44
2019-03-09T11:51:59.321Z,62.69
2019-03-09T11:54:28.813Z,63.12
2019-03-09T11:57:00.165Z,63.01
2019-03-09T11:59:29.556Z,62.25
2019-03-09T12:02:11.144Z,62.69
2019-03-09T12:04:46.797Z,61.94
2019-03-09T12:07:31.024Z,62.17
2019-03-09T12:10:00.455Z,61.70
2019-03-09T12:12:29.818Z,61.44
2019-03-09T12:14:59.523Z,61.52
2019-03-09T12:26:01.702Z,62.13
2019-03-09T12:28:31.096Z,62.42
2019-03-09T12:31:00.464Z,62.45
2019-03-09T12:36:04.525Z,63.39
2019-03-09T12:41:16.347Z,63.62
2019-03-09T12:43:33.763Z,64.06
2019-03-09T12:46:03.190Z,64.05
2019-03-09T12:48:32.738Z,64.30
2019-03-09T12:51:02.265Z,64.75
2019-03-09T12:53:52.797Z,64.98
2019-03-09T12:56:22.279Z,64.98
2019-03-09T12:59:04.612Z,65.62
2019-03-09T13:01:34.558Z,65.86
2019-03-09T13:07:12.944Z,67.63
2019-03-09T13:09:44.824Z,68.00
2019-03-09T13:12:14.226Z,68.53
2019-03-09T13:14:43.788Z,68.99
2019-03-09T13:17:15.692Z,69.17
2019-03-09T13:19:45.559Z,69.55
2019-03-09T13:22:15.057Z,69.32
2019-03-09T13:24:46.146Z,69.30
2019-03-09T13:27:15.551Z,69.49
2019-03-09T13:32:19.817Z,69.32
2019-03-09T13:34:49.468Z,69.39
2019-03-09T13:37:18.889Z,69.12
2019-03-09T13:39:48.275Z,69.01
2019-03-09T13:42:17.816Z,69.20
2019-03-09T13:44:47.227Z,69.47
2019-03-09T13:47:16.648Z,69.90
2019-03-09T13:50:19.605Z,69.76
2019-03-09T13:55:30.965Z,70.63
2019-03-09T13:58:00.393Z,70.60
2019-03-09T14:00:40.409Z,70.69
2019-03-09T14:03:05.989Z,71.07
2019-03-09T14:06:08.256Z,71.17
2019-03-09T14:08:25.677Z,71.30
2019-03-09T14:13:48.940Z,71.39
2019-03-09T14:16:18.337Z,71.29
2019-03-09T14:18:47.730Z,71.04
2019-03-09T14:21:17.230Z,71.04
2019-03-09T14:23:46.780Z,70.88
2019-03-09T14:26:16.175Z,70.84
2019-03-09T14:28:45.707Z,70.81
2019-03-09T14:31:15.091Z,70.59
2019-03-09T14:34:05.592Z,70.79
2019-03-09T14:36:42.150Z,70.80
2019-03-09T14:39:11.577Z,70.71
2019-03-09T14:41:41.102Z,70.84
2019-03-09T14:44:10.546Z,71.36
2019-03-09T14:46:40.366Z,71.42
2019-03-09T14:49:09.871Z,71.61
2019-03-09T14:51:39.376Z,71.72
2019-03-09T14:54:08.968Z,72.22
2019-03-09T14:56:38.374Z,72.92
2019-03-09T14:59:07.887Z,73.15
2019-03-09T15:01:37.552Z,73.75
2019-03-09T15:04:07.055Z,73.91
2019-03-09T15:06:37.006Z,74.28
2019-03-09T15:09:17.997Z,74.31
2019-03-09T15:14:28.717Z,75.07
2019-03-09T15:16:58.291Z,75.15
2019-03-09T15:19:27.836Z,75.28
2019-03-09T15:24:50.888Z,75.97
2019-03-09T15:32:36.325Z,76.23
2019-03-09T15:35:06.526Z,76.36
2019-03-09T15:37:36.008Z,76.50
2019-03-09T15:40:44.848Z,76.80
2019-03-09T15:43:14.260Z,76.75
2019-03-09T15:46:02.951Z,76.82
2019-03-09T15:48:35.481Z,77.02
2019-03-09T15:51:04.963Z,77.32
2019-03-09T15:53:34.437Z,77.47
2019-03-09T15:56:24.472Z,77.86
2019-03-09T15:58:56.337Z,78.16
2019-03-09T16:01:26.035Z,78.41
2019-03-09T16:03:55.412Z,78.47
2019-03-09T16:06:27.701Z,78.60
2019-03-09T16:08:57.242Z,78.78
2019-03-09T16:11:27.039Z,79.12
2019-03-09T16:13:57.193Z,79.13
2019-03-09T16:16:46.985Z,79.27
2019-03-09T16:19:17.029Z,79.48
2019-03-09T16:21:46.446Z,79.81
2019-03-09T16:24:15.827Z,79.81
2019-03-09T16:27:04.364Z,80.22
2019-03-09T16:29:33.767Z,80.16
2019-03-09T16:32:03.182Z,80.40
2019-03-09T16:34:33.680Z,80.41
2019-03-09T16:37:03.022Z,80.44
2019-03-09T16:39:32.452Z,80.64
2019-03-09T16:42:02.335Z,80.76
2019-03-09T16:44:31.917Z,80.72
2019-03-09T16:47:01.417Z,80.79
2019-03-09T16:49:49.759Z,80.67
2019-03-09T16:52:19.372Z,80.91
2019-03-09T16:54:48.736Z,80.86
2019-03-09T17:00:32.292Z,80.80
2019-03-09T17:03:13.303Z,80.94
2019-03-09T17:05:44.902Z,81.21
2019-03-09T17:08:16.836Z,81.50
2019-03-09T17:10:46.451Z,81.79
2019-03-09T17:13:15.853Z,81.84
2019-03-09T17:15:45.403Z,81.95
2019-03-09T17:18:17.031Z,82.20
2019-03-09T17:20:46.416Z,82.13
2019-03-09T17:23:15.857Z,82.24
2019-03-09T17:25:45.361Z,82.29
2019-03-09T17:28:14.832Z,82.34
2019-03-09T17:30:44.469Z,82.40
2019-03-09T17:33:13.936Z,82.42
2019-03-09T17:35:43.455Z,82.41
2019-03-09T17:38:13.115Z,82.42
2019-03-09T17:40:43.686Z,82.42
2019-03-09T17:48:46.003Z,83.00
2019-03-09T17:51:15.376Z,83.35
2019-03-09T17:54:05.761Z,83.73
2019-03-09T17:56:35.240Z,84.15
2019-03-09T17:59:04.668Z,84.11
2019-03-09T18:01:34.661Z,84.96
2019-03-09T18:06:47.552Z,84.79
2019-03-09T18:12:13.368Z,85.22
2019-03-09T18:14:43.278Z,85.43
2019-03-09T18:17:12.704Z,85.43
2019-03-09T18:20:01.010Z,85.76
2019-03-09T18:22:30.481Z,85.94
2019-03-09T18:25:00.007Z,86.00
2019-03-09T18:27:29.575Z,86.16
2019-03-09T18:29:59.213Z,86.27
2019-03-09T18:32:28.796Z,86.83
2019-03-09T18:34:58.388Z,86.82
2019-03-09T18:37:28.061Z,87.05
2019-03-09T18:39:57.607Z,87.10
2019-03-09T18:42:27.295Z,87.44
2019-03-09T18:44:59.186Z,87.44
2019-03-09T18:47:28.952Z,87.68
2019-03-09T18:49:58.480Z,88.16
2019-03-09T18:52:28.048Z,88.55
2019-03-09T18:54:57.587Z,88.67
2019-03-09T18:57:27.264Z,89.02
2019-03-09T18:59:56.913Z,89.02
2019-03-09T19:02:26.471Z,89.03
2019-03-09T19:05:07.542Z,88.95
2019-03-09T19:07:52.925Z,88.56
2019-03-09T19:10:12.195Z,88.56
2019-03-09T19:15:31.065Z,88.37
2019-03-09T19:21:00.626Z,88.27
2019-03-09T19:23:30.199Z,88.22
2019-03-09T19:25:59.618Z,88.11
2019-03-09T19:28:35.268Z,88.27
2019-03-09T19:31:23.571Z,88.28
2019-03-09T19:33:53.365Z,88.43
2019-03-09T19:36:41.960Z,88.53
2019-03-09T19:44:39.516Z,89.23
2019-03-09T19:47:09.246Z,89.38
2019-03-09T19:49:59.846Z,89.58
2019-03-09T19:55:25.438Z,89.71
2019-03-09T19:57:55.065Z,89.82
2019-03-09T20:00:24.418Z,89.91
2019-03-09T20:02:56.275Z,89.67
2019-03-09T20:05:28.023Z,89.56
2019-03-09T20:07:57.619Z,89.47
2019-03-09T20:10:27.225Z,89.25
2019-03-09T20:12:56.738Z,89.11
2019-03-09T20:15:26.440Z,89.08
2019-03-09T20:17:56.046Z,88.75
2019-03-09T20:20:25.651Z,88.22
2019-03-09T20:22:55.075Z,88.43
2019-03-09T20:25:24.492Z,88.41
2019-03-09T20:27:55.673Z,87.86
2019-03-09T20:30:25.249Z,87.83
2019-03-09T20:32:54.769Z,87.87
2019-03-09T20:35:24.260Z,88.07
2019-03-09T20:38:13.894Z,88.11
2019-03-09T20:40:54.966Z,88.19
2019-03-09T20:43:24.736Z,87.91
2019-03-09T20:45:57.639Z,87.90
2019-03-09T20:48:27.174Z,88.21
2019-03-09T20:51:05.829Z,88.24
2019-03-09T20:53:35.234Z,88.65
2019-03-09T20:56:23.806Z,88.51
2019-03-09T20:58:53.414Z,88.24
2019-03-09T21:01:24.839Z,88.23
2019-03-09T21:03:54.825Z,87.46
2019-03-09T21:06:43.972Z,87.46
2019-03-09T21:09:25.228Z,86.87
2019-03-09T21:11:55.903Z,86.47
2019-03-09T21:14:25.358Z,86.97
2019-03-09T21:17:00.063Z,86.95
2019-03-09T21:19:29.473Z,86.65
2019-03-09T21:22:03.981Z,86.54
2019-03-09T21:24:33.413Z,87.11
2019-03-09T21:27:23.436Z,86.93
2019-03-09T21:29:54.071Z,86.32
2019-03-09T21:37:46.508Z,86.04
2019-03-09T21:40:16.065Z,86.12
2019-03-09T21:42:45.462Z,86.61
2019-03-09T21:45:14.925Z,86.27
2019-03-09T21:47:44.322Z,85.95
2019-03-09T21:50:14.311Z,85.83
2019-03-09T21:52:52.770Z,86.26
2019-03-09T21:55:40.605Z,86.57
2019-03-09T21:58:10.290Z,86.53
2019-03-09T22:00:39.697Z,86.24
2019-03-09T22:03:09.282Z,85.87
2019-03-09T22:05:38.784Z,86.32
2019-03-09T22:10:57.925Z,86.52
2019-03-09T22:13:27.375Z,86.74
2019-03-09T22:15:58.980Z,86.19
2019-03-09T22:21:06.292Z,85.97
2019-03-09T22:26:16.586Z,85.30
2019-03-09T22:28:57.972Z,85.62
2019-03-09T22:31:27.586Z,84.91
2019-03-09T22:33:57.123Z,85.57
2019-03-09T22:36:26.723Z,85.53
2019-03-09T22:38:56.404Z,85.55
2019-03-09T22:41:26.384Z,85.65
2019-03-09T22:43:55.832Z,85.36
2019-03-09T22:46:25.393Z,85.26
2019-03-09T22:49:13.659Z,85.14
2019-03-09T22:54:24.629Z,84.88
2019-03-09T22:56:54.167Z,85.02
2019-03-09T22:59:23.654Z,85.36
2019-03-09T23:01:53.295Z,84.68
2019-03-09T23:04:22.979Z,85.03
2019-03-09T23:07:11.503Z,84.51
2019-03-09T23:09:41.025Z,84.42
2019-03-09T23:12:10.439Z,83.82
2019-03-09T23:14:40.356Z,83.37
2019-03-09T23:17:09.853Z,84.03
2019-03-09T23:19:39.418Z,83.54
2019-03-09T23:22:08.987Z,83.70
2019-03-09T23:24:38.391Z,84.27
2019-03-09T23:27:35.819Z,83.85
2019-03-09T23:30:16.947Z,83.95
2019-03-09T23:32:46.395Z,83.84
2019-03-09T23:35:36.285Z,84.30
2019-03-09T23:38:05.694Z,83.91
2019-03-09T23:40:35.096Z,83.84
2019-03-09T23:43:04.601Z,84.13
2019-03-09T23:45:36.911Z,83.99
2019-03-09T23:48:06.295Z,84.54
2019-03-09T23:50:35.762Z,84.50
2019-03-09T23:53:05.212Z,84.50
2019-03-09T23:55:34.836Z,84.42
2019-03-09T23:58:04.210Z,84.30
